sensor_id;sensor_type;location;lat;lon;timestamp;P1;durP1;ratioP1;P2;durP2;ratioP2
22677;SDS011;26259;50.214;18.620;2023-03-01T00:02:18;245.83;;;109.47;;
22677;SDS011;26259;50.214;18.620;2023-03-01T00:04:44;248.67;;;114.73;;
22677;SDS011;26259;50.214;18.620;2023-03-01T00:07:10;243.70;;;110.63;;
22677;SDS011;26259;50.214;18.620;2023-03-01T00:09:36;255.17;;;114.37;;
22677;SDS011;26259;50.214;18.620;2023-03-01T00:12:02;251.83;;;114.83;;
22677;SDS011;26259;50.214;18.620;2023-03-01T00:14:28;258.50;;;115.27;;
22677;SDS011;26259;50.214;18.620;2023-03-01T00:16:53;233.83;;;113.67;;
22677;SDS011;26259;50.214;18.620;2023-03-01T00:19:19;254.03;;;117.43;;
22677;SDS011;26259;50.214;18.620;2023-03-01T00:21:46;252.90;;;114.13;;
22677;SDS011;26259;50.214;18.620;2023-03-01T00:24:12;251.80;;;116.20;;
22677;SDS011;26259;50.214;18.620;2023-03-01T00:26:38;262.43;;;120.90;;
22677;SDS011;26259;50.214;18.620;2023-03-01T00:29:04;254.57;;;115.90;;
22677;SDS011;26259;50.214;18.620;2023-03-01T00:31:31;264.03;;;119.73;;
22677;SDS011;26259;50.214;18.620;2023-03-01T00:33:58;264.67;;;116.87;;
22677;SDS011;26259;50.214;18.620;2023-03-01T00:36:27;262.90;;;117.33;;
22677;SDS011;26259;50.214;18.620;2023-03-01T00:38:57;256.60;;;113.50;;
22677;SDS011;26259;50.214;18.620;2023-03-01T00:41:23;255.77;;;117.27;;
22677;SDS011;26259;50.214;18.620;2023-03-01T00:43:51;255.00;;;115.37;;
22677;SDS011;26259;50.214;18.620;2023-03-01T00:46:18;254.50;;;115.90;;
22677;SDS011;26259;50.214;18.620;2023-03-01T00:48:45;252.57;;;115.60;;
22677;SDS011;26259;50.214;18.620;2023-03-01T00:51:13;264.70;;;119.30;;
22677;SDS011;26259;50.214;18.620;2023-03-01T00:53:41;253.70;;;116.87;;
22677;SDS011;26259;50.214;18.620;2023-03-01T00:56:08;294.33;;;135.37;;
22677;SDS011;26259;50.214;18.620;2023-03-01T00:58:35;300.93;;;135.73;;
22677;SDS011;26259;50.214;18.620;2023-03-01T01:01:01;303.30;;;135.80;;
22677;SDS011;26259;50.214;18.620;2023-03-01T01:03:42;265.90;;;121.07;;
22677;SDS011;26259;50.214;18.620;2023-03-01T01:06:20;253.47;;;116.23;;
22677;SDS011;26259;50.214;18.620;2023-03-01T01:08:47;248.87;;;116.60;;
22677;SDS011;26259;50.214;18.620;2023-03-01T01:11:13;239.43;;;110.97;;
22677;SDS011;26259;50.214;18.620;2023-03-01T01:13:39;254.70;;;117.97;;
22677;SDS011;26259;50.214;18.620;2023-03-01T01:16:06;252.20;;;121.07;;
22677;SDS011;26259;50.214;18.620;2023-03-01T01:18:32;258.93;;;122.93;;
22677;SDS011;26259;50.214;18.620;2023-03-01T01:21:02;273.07;;;125.07;;
22677;SDS011;26259;50.214;18.620;2023-03-01T01:23:33;274.93;;;125.60;;
22677;SDS011;26259;50.214;18.620;2023-03-01T01:26:33;261.97;;;121.60;;
22677;SDS011;26259;50.214;18.620;2023-03-01T01:28:54;270.00;;;123.97;;
22677;SDS011;26259;50.214;18.620;2023-03-01T01:31:20;261.60;;;119.53;;
22677;SDS011;26259;50.214;18.620;2023-03-01T01:33:48;268.20;;;119.33;;
22677;SDS011;26259;50.214;18.620;2023-03-01T01:36:14;257.93;;;121.27;;
22677;SDS011;26259;50.214;18.620;2023-03-01T01:38:40;312.67;;;138.77;;
22677;SDS011;26259;50.214;18.620;2023-03-01T01:41:07;287.27;;;129.20;;
22677;SDS011;26259;50.214;18.620;2023-03-01T01:43:43;260.10;;;123.03;;
22677;SDS011;26259;50.214;18.620;2023-03-01T01:49:00;259.27;;;120.37;;
22677;SDS011;26259;50.214;18.620;2023-03-01T01:51:30;265.33;;;122.90;;
22677;SDS011;26259;50.214;18.620;2023-03-01T01:54:03;308.23;;;137.37;;
22677;SDS011;26259;50.214;18.620;2023-03-01T01:56:37;321.30;;;146.23;;
22677;SDS011;26259;50.214;18.620;2023-03-01T01:59:07;299.97;;;136.93;;
22677;SDS011;26259;50.214;18.620;2023-03-01T02:01:34;292.77;;;134.60;;
22677;SDS011;26259;50.214;18.620;2023-03-01T02:04:00;277.83;;;132.50;;
22677;SDS011;26259;50.214;18.620;2023-03-01T02:06:39;277.73;;;130.53;;
22677;SDS011;26259;50.214;18.620;2023-03-01T02:09:12;288.30;;;128.60;;
22677;SDS011;26259;50.214;18.620;2023-03-01T02:11:40;276.70;;;128.37;;
22677;SDS011;26259;50.214;18.620;2023-03-01T02:14:08;277.77;;;125.97;;
22677;SDS011;26259;50.214;18.620;2023-03-01T02:16:34;278.17;;;126.87;;
22677;SDS011;26259;50.214;18.620;2023-03-01T02:19:00;273.57;;;128.53;;
22677;SDS011;26259;50.214;18.620;2023-03-01T02:21:37;261.37;;;122.77;;
22677;SDS011;26259;50.214;18.620;2023-03-01T02:24:29;257.60;;;117.87;;
22677;SDS011;26259;50.214;18.620;2023-03-01T02:27:05;251.07;;;118.87;;
22677;SDS011;26259;50.214;18.620;2023-03-01T02:29:31;240.50;;;114.47;;
22677;SDS011;26259;50.214;18.620;2023-03-01T02:31:57;258.00;;;119.23;;
22677;SDS011;26259;50.214;18.620;2023-03-01T02:34:27;282.67;;;123.03;;
22677;SDS011;26259;50.214;18.620;2023-03-01T02:37:06;282.90;;;125.87;;
22677;SDS011;26259;50.214;18.620;2023-03-01T02:39:39;281.33;;;124.37;;
22677;SDS011;26259;50.214;18.620;2023-03-01T02:42:13;295.40;;;126.10;;
22677;SDS011;26259;50.214;18.620;2023-03-01T02:44:41;286.53;;;126.43;;
22677;SDS011;26259;50.214;18.620;2023-03-01T02:47:07;293.43;;;127.67;;
22677;SDS011;26259;50.214;18.620;2023-03-01T02:49:34;310.10;;;132.93;;
22677;SDS011;26259;50.214;18.620;2023-03-01T02:55:10;304.87;;;127.93;;
22677;SDS011;26259;50.214;18.620;2023-03-01T02:57:39;296.43;;;124.30;;
22677;SDS011;26259;50.214;18.620;2023-03-01T03:00:11;281.50;;;123.87;;
22677;SDS011;26259;50.214;18.620;2023-03-01T03:02:44;284.33;;;123.27;;
22677;SDS011;26259;50.214;18.620;2023-03-01T03:05:23;260.57;;;114.57;;
22677;SDS011;26259;50.214;18.620;2023-03-01T03:07:51;278.03;;;119.57;;
22677;SDS011;26259;50.214;18.620;2023-03-01T03:10:36;275.67;;;119.83;;
22677;SDS011;26259;50.214;18.620;2023-03-01T03:13:08;276.50;;;117.67;;
22677;SDS011;26259;50.214;18.620;2023-03-01T03:15:35;257.97;;;116.47;;
22677;SDS011;26259;50.214;18.620;2023-03-01T03:18:02;253.33;;;113.93;;
22677;SDS011;26259;50.214;18.620;2023-03-01T03:23:00;277.80;;;119.37;;
22677;SDS011;26259;50.214;18.620;2023-03-01T03:25:26;258.90;;;114.67;;
22677;SDS011;26259;50.214;18.620;2023-03-01T03:27:53;260.60;;;115.97;;
22677;SDS011;26259;50.214;18.620;2023-03-01T03:30:30;257.03;;;113.70;;
22677;SDS011;26259;50.214;18.620;2023-03-01T03:32:56;268.73;;;116.13;;
22677;SDS011;26259;50.214;18.620;2023-03-01T03:35:25;265.40;;;115.90;;
22677;SDS011;26259;50.214;18.620;2023-03-01T03:40:31;255.93;;;113.20;;
22677;SDS011;26259;50.214;18.620;2023-03-01T03:42:57;260.93;;;116.50;;
22677;SDS011;26259;50.214;18.620;2023-03-01T03:45:23;260.83;;;118.07;;
22677;SDS011;26259;50.214;18.620;2023-03-01T03:47:49;249.23;;;114.50;;
22677;SDS011;26259;50.214;18.620;2023-03-01T03:50:15;263.30;;;118.73;;
22677;SDS011;26259;50.214;18.620;2023-03-01T03:52:41;267.47;;;119.60;;
22677;SDS011;26259;50.214;18.620;2023-03-01T03:55:08;267.13;;;119.23;;
22677;SDS011;26259;50.214;18.620;2023-03-01T03:57:35;254.23;;;118.53;;
22677;SDS011;26259;50.214;18.620;2023-03-01T04:00:02;260.20;;;116.83;;
22677;SDS011;26259;50.214;18.620;2023-03-01T04:02:29;263.37;;;120.47;;
22677;SDS011;26259;50.214;18.620;2023-03-01T04:04:55;258.47;;;116.97;;
22677;SDS011;26259;50.214;18.620;2023-03-01T04:07:21;249.17;;;114.73;;
22677;SDS011;26259;50.214;18.620;2023-03-01T04:09:46;258.23;;;117.73;;
22677;SDS011;26259;50.214;18.620;2023-03-01T04:12:12;260.00;;;120.67;;
22677;SDS011;26259;50.214;18.620;2023-03-01T04:14:37;290.53;;;128.43;;
22677;SDS011;26259;50.214;18.620;2023-03-01T04:17:03;256.37;;;118.87;;
22677;SDS011;26259;50.214;18.620;2023-03-01T04:19:30;268.17;;;120.33;;
22677;SDS011;26259;50.214;18.620;2023-03-01T04:24:33;256.13;;;116.83;;
22677;SDS011;26259;50.214;18.620;2023-03-01T04:26:59;254.13;;;116.77;;
22677;SDS011;26259;50.214;18.620;2023-03-01T04:29:24;251.40;;;112.47;;
22677;SDS011;26259;50.214;18.620;2023-03-01T04:31:50;244.13;;;112.23;;
22677;SDS011;26259;50.214;18.620;2023-03-01T04:34:15;246.63;;;112.63;;
22677;SDS011;26259;50.214;18.620;2023-03-01T04:36:41;253.60;;;113.70;;
22677;SDS011;26259;50.214;18.620;2023-03-01T04:39:06;246.37;;;114.73;;
22677;SDS011;26259;50.214;18.620;2023-03-01T04:41:37;243.17;;;113.87;;
22677;SDS011;26259;50.214;18.620;2023-03-01T04:44:08;271.07;;;120.70;;
22677;SDS011;26259;50.214;18.620;2023-03-01T04:49:09;250.13;;;114.77;;
22677;SDS011;26259;50.214;18.620;2023-03-01T04:51:35;259.17;;;116.00;;
22677;SDS011;26259;50.214;18.620;2023-03-01T04:54:00;260.53;;;117.90;;
22677;SDS011;26259;50.214;18.620;2023-03-01T04:56:26;237.20;;;112.30;;
22677;SDS011;26259;50.214;18.620;2023-03-01T04:58:55;241.73;;;112.80;;
22677;SDS011;26259;50.214;18.620;2023-03-01T05:01:20;247.20;;;115.17;;
22677;SDS011;26259;50.214;18.620;2023-03-01T05:03:47;262.03;;;111.90;;
22677;SDS011;26259;50.214;18.620;2023-03-01T05:06:16;254.70;;;116.43;;
22677;SDS011;26259;50.214;18.620;2023-03-01T05:08:43;249.10;;;116.27;;
22677;SDS011;26259;50.214;18.620;2023-03-01T05:11:10;242.67;;;109.27;;
22677;SDS011;26259;50.214;18.620;2023-03-01T05:13:36;243.53;;;112.23;;
22677;SDS011;26259;50.214;18.620;2023-03-01T05:16:03;244.70;;;110.67;;
22677;SDS011;26259;50.214;18.620;2023-03-01T05:18:30;255.10;;;115.43;;
22677;SDS011;26259;50.214;18.620;2023-03-01T05:21:05;251.60;;;114.83;;
22677;SDS011;26259;50.214;18.620;2023-03-01T05:23:34;251.10;;;115.07;;
22677;SDS011;26259;50.214;18.620;2023-03-01T05:26:00;248.30;;;114.00;;
22677;SDS011;26259;50.214;18.620;2023-03-01T05:28:28;253.07;;;113.63;;
22677;SDS011;26259;50.214;18.620;2023-03-01T05:30:54;243.30;;;108.87;;
22677;SDS011;26259;50.214;18.620;2023-03-01T05:33:21;257.03;;;115.90;;
22677;SDS011;26259;50.214;18.620;2023-03-01T05:35:47;244.13;;;112.90;;
22677;SDS011;26259;50.214;18.620;2023-03-01T05:38:14;249.53;;;115.17;;
22677;SDS011;26259;50.214;18.620;2023-03-01T05:40:41;256.50;;;116.00;;
22677;SDS011;26259;50.214;18.620;2023-03-01T05:43:08;238.00;;;110.03;;
22677;SDS011;26259;50.214;18.620;2023-03-01T05:45:35;241.97;;;111.27;;
22677;SDS011;26259;50.214;18.620;2023-03-01T05:48:02;240.93;;;111.10;;
22677;SDS011;26259;50.214;18.620;2023-03-01T05:50:31;301.43;;;127.10;;
22677;SDS011;26259;50.214;18.620;2023-03-01T05:58:01;359.70;;;136.83;;
22677;SDS011;26259;50.214;18.620;2023-03-01T06:00:28;340.23;;;137.27;;
22677;SDS011;26259;50.214;18.620;2023-03-01T06:02:55;484.93;;;173.77;;
22677;SDS011;26259;50.214;18.620;2023-03-01T06:05:22;462.87;;;164.43;;
22677;SDS011;26259;50.214;18.620;2023-03-01T06:07:48;467.83;;;173.37;;
22677;SDS011;26259;50.214;18.620;2023-03-01T06:10:15;464.23;;;162.20;;
22677;SDS011;26259;50.214;18.620;2023-03-01T06:17:53;465.23;;;171.53;;
22677;SDS011;26259;50.214;18.620;2023-03-01T06:20:21;479.60;;;180.13;;
22677;SDS011;26259;50.214;18.620;2023-03-01T06:22:48;462.00;;;175.20;;
22677;SDS011;26259;50.214;18.620;2023-03-01T06:25:15;473.93;;;181.27;;
22677;SDS011;26259;50.214;18.620;2023-03-01T06:27:43;463.43;;;170.17;;
22677;SDS011;26259;50.214;18.620;2023-03-01T06:32:36;456.80;;;175.50;;
22677;SDS011;26259;50.214;18.620;2023-03-01T06:35:03;462.83;;;176.67;;
22677;SDS011;26259;50.214;18.620;2023-03-01T06:40:05;431.87;;;169.47;;
22677;SDS011;26259;50.214;18.620;2023-03-01T06:42:33;427.67;;;169.87;;
22677;SDS011;26259;50.214;18.620;2023-03-01T06:44:59;434.70;;;174.93;;
22677;SDS011;26259;50.214;18.620;2023-03-01T06:47:25;415.53;;;180.17;;
22677;SDS011;26259;50.214;18.620;2023-03-01T06:49:51;450.53;;;182.73;;
22677;SDS011;26259;50.214;18.620;2023-03-01T06:52:16;438.30;;;182.03;;
22677;SDS011;26259;50.214;18.620;2023-03-01T06:54:42;436.13;;;181.00;;
22677;SDS011;26259;50.214;18.620;2023-03-01T06:57:07;427.53;;;182.37;;
22677;SDS011;26259;50.214;18.620;2023-03-01T06:59:33;408.17;;;178.10;;
22677;SDS011;26259;50.214;18.620;2023-03-01T07:01:58;399.03;;;177.07;;
22677;SDS011;26259;50.214;18.620;2023-03-01T07:06:59;329.23;;;152.37;;
22677;SDS011;26259;50.214;18.620;2023-03-01T07:09:26;324.43;;;147.80;;
22677;SDS011;26259;50.214;18.620;2023-03-01T07:11:51;389.53;;;176.23;;
22677;SDS011;26259;50.214;18.620;2023-03-01T07:14:17;378.07;;;170.17;;
22677;SDS011;26259;50.214;18.620;2023-03-01T07:16:44;385.90;;;179.60;;
22677;SDS011;26259;50.214;18.620;2023-03-01T07:19:10;380.80;;;172.47;;
22677;SDS011;26259;50.214;18.620;2023-03-01T07:21:36;374.70;;;169.67;;
22677;SDS011;26259;50.214;18.620;2023-03-01T07:24:04;370.23;;;174.30;;
22677;SDS011;26259;50.214;18.620;2023-03-01T07:26:34;343.30;;;163.37;;
22677;SDS011;26259;50.214;18.620;2023-03-01T07:29:00;339.83;;;160.57;;
22677;SDS011;26259;50.214;18.620;2023-03-01T07:31:29;336.63;;;160.50;;
22677;SDS011;26259;50.214;18.620;2023-03-01T07:33:55;315.77;;;156.07;;
22677;SDS011;26259;50.214;18.620;2023-03-01T07:36:20;308.60;;;146.27;;
22677;SDS011;26259;50.214;18.620;2023-03-01T07:38:46;283.37;;;143.80;;
22677;SDS011;26259;50.214;18.620;2023-03-01T07:41:12;275.40;;;137.13;;
22677;SDS011;26259;50.214;18.620;2023-03-01T07:43:38;251.30;;;125.43;;
22677;SDS011;26259;50.214;18.620;2023-03-01T07:46:03;229.93;;;117.80;;
22677;SDS011;26259;50.214;18.620;2023-03-01T07:48:30;238.67;;;117.97;;
22677;SDS011;26259;50.214;18.620;2023-03-01T07:51:00;231.30;;;118.13;;
22677;SDS011;26259;50.214;18.620;2023-03-01T07:53:26;245.30;;;121.93;;
22677;SDS011;26259;50.214;18.620;2023-03-01T07:58:38;204.23;;;105.73;;
22677;SDS011;26259;50.214;18.620;2023-03-01T08:01:06;220.57;;;113.50;;
22677;SDS011;26259;50.214;18.620;2023-03-01T08:03:33;219.37;;;112.87;;
22677;SDS011;26259;50.214;18.620;2023-03-01T08:06:00;219.87;;;115.90;;
22677;SDS011;26259;50.214;18.620;2023-03-01T08:08:27;209.90;;;112.83;;
22677;SDS011;26259;50.214;18.620;2023-03-01T08:10:55;203.80;;;104.63;;
22677;SDS011;26259;50.214;18.620;2023-03-01T08:13:21;194.63;;;100.97;;
22677;SDS011;26259;50.214;18.620;2023-03-01T08:15:50;194.63;;;100.67;;
22677;SDS011;26259;50.214;18.620;2023-03-01T08:18:16;197.23;;;101.17;;
22677;SDS011;26259;50.214;18.620;2023-03-01T08:20:43;187.73;;;102.57;;
22677;SDS011;26259;50.214;18.620;2023-03-01T08:23:09;199.03;;;100.07;;
22677;SDS011;26259;50.214;18.620;2023-03-01T08:25:35;194.53;;;101.10;;
22677;SDS011;26259;50.214;18.620;2023-03-01T08:28:00;190.97;;;101.53;;
22677;SDS011;26259;50.214;18.620;2023-03-01T08:30:26;173.97;;;92.10;;
22677;SDS011;26259;50.214;18.620;2023-03-01T08:32:52;168.47;;;86.47;;
22677;SDS011;26259;50.214;18.620;2023-03-01T08:35:17;168.67;;;86.10;;
22677;SDS011;26259;50.214;18.620;2023-03-01T08:37:43;155.17;;;79.07;;
22677;SDS011;26259;50.214;18.620;2023-03-01T08:40:09;152.83;;;77.77;;
22677;SDS011;26259;50.214;18.620;2023-03-01T08:42:36;148.03;;;78.27;;
22677;SDS011;26259;50.214;18.620;2023-03-01T08:45:02;135.03;;;73.13;;
22677;SDS011;26259;50.214;18.620;2023-03-01T08:47:28;154.10;;;77.30;;
22677;SDS011;26259;50.214;18.620;2023-03-01T08:49:54;151.23;;;78.13;;
22677;SDS011;26259;50.214;18.620;2023-03-01T09:13:02;56.03;;;30.53;;
22677;SDS011;26259;50.214;18.620;2023-03-01T09:23:14;31.90;;;16.97;;
22677;SDS011;26259;50.214;18.620;2023-03-01T09:25:39;33.13;;;17.20;;
22677;SDS011;26259;50.214;18.620;2023-03-01T09:28:05;29.50;;;16.30;;
22677;SDS011;26259;50.214;18.620;2023-03-01T09:30:31;25.53;;;15.37;;
22677;SDS011;26259;50.214;18.620;2023-03-01T09:32:57;20.27;;;13.23;;
22677;SDS011;26259;50.214;18.620;2023-03-01T09:37:57;51.77;;;29.50;;
22677;SDS011;26259;50.214;18.620;2023-03-01T09:40:24;28.93;;;16.67;;
22677;SDS011;26259;50.214;18.620;2023-03-01T09:42:59;23.03;;;14.57;;
22677;SDS011;26259;50.214;18.620;2023-03-01T09:45:33;33.13;;;19.03;;
22677;SDS011;26259;50.214;18.620;2023-03-01T09:48:02;39.03;;;21.20;;
22677;SDS011;26259;50.214;18.620;2023-03-01T09:50:32;35.27;;;22.43;;
22677;SDS011;26259;50.214;18.620;2023-03-01T09:55:37;36.20;;;21.53;;
22677;SDS011;26259;50.214;18.620;2023-03-01T10:06:35;42.03;;;23.70;;
22677;SDS011;26259;50.214;18.620;2023-03-01T10:24:34;49.57;;;26.33;;
22677;SDS011;26259;50.214;18.620;2023-03-01T10:29:41;51.67;;;28.87;;
22677;SDS011;26259;50.214;18.620;2023-03-01T10:32:15;59.30;;;30.17;;
22677;SDS011;26259;50.214;18.620;2023-03-01T10:34:43;53.60;;;29.23;;
22677;SDS011;26259;50.214;18.620;2023-03-01T10:37:13;56.60;;;29.10;;
22677;SDS011;26259;50.214;18.620;2023-03-01T10:47:42;67.60;;;30.97;;
22677;SDS011;26259;50.214;18.620;2023-03-01T10:50:17;53.27;;;30.30;;
22677;SDS011;26259;50.214;18.620;2023-03-01T10:53:00;55.47;;;29.03;;
22677;SDS011;26259;50.214;18.620;2023-03-01T10:55:34;51.47;;;28.47;;
22677;SDS011;26259;50.214;18.620;2023-03-01T10:58:08;57.30;;;30.87;;
22677;SDS011;26259;50.214;18.620;2023-03-01T11:01:04;55.90;;;29.13;;
22677;SDS011;26259;50.214;18.620;2023-03-01T11:04:22;48.23;;;27.47;;
22677;SDS011;26259;50.214;18.620;2023-03-01T11:06:41;53.30;;;27.20;;
22677;SDS011;26259;50.214;18.620;2023-03-01T11:11:42;39.73;;;25.23;;
22677;SDS011;26259;50.214;18.620;2023-03-01T11:19:29;47.70;;;25.17;;
22677;SDS011;26259;50.214;18.620;2023-03-01T11:27:04;49.40;;;28.33;;
22677;SDS011;26259;50.214;18.620;2023-03-01T11:30:00;46.63;;;25.00;;
22677;SDS011;26259;50.214;18.620;2023-03-01T11:32:53;41.60;;;24.13;;
22677;SDS011;26259;50.214;18.620;2023-03-01T11:35:27;43.07;;;25.40;;
22677;SDS011;26259;50.214;18.620;2023-03-01T11:40:55;48.53;;;27.00;;
22677;SDS011;26259;50.214;18.620;2023-03-01T11:51:11;45.63;;;25.77;;
22677;SDS011;26259;50.214;18.620;2023-03-01T11:56:26;38.07;;;23.43;;
22677;SDS011;26259;50.214;18.620;2023-03-01T12:04:43;40.33;;;23.50;;
22677;SDS011;26259;50.214;18.620;2023-03-01T12:12:53;41.20;;;23.80;;
22677;SDS011;26259;50.214;18.620;2023-03-01T12:18:12;36.33;;;20.57;;
22677;SDS011;26259;50.214;18.620;2023-03-01T12:23:48;35.37;;;20.03;;
22677;SDS011;26259;50.214;18.620;2023-03-01T12:26:37;34.97;;;20.17;;
22677;SDS011;26259;50.214;18.620;2023-03-01T12:34:39;32.47;;;19.20;;
22677;SDS011;26259;50.214;18.620;2023-03-01T12:46:10;36.20;;;21.13;;
22677;SDS011;26259;50.214;18.620;2023-03-01T12:51:18;41.33;;;21.17;;
22677;SDS011;26259;50.214;18.620;2023-03-01T12:53:49;37.63;;;21.17;;
22677;SDS011;26259;50.214;18.620;2023-03-01T12:56:17;36.80;;;21.37;;
22677;SDS011;26259;50.214;18.620;2023-03-01T13:01:45;35.80;;;21.17;;
22677;SDS011;26259;50.214;18.620;2023-03-01T13:04:33;38.73;;;21.67;;
22677;SDS011;26259;50.214;18.620;2023-03-01T13:10:11;38.13;;;21.87;;
22677;SDS011;26259;50.214;18.620;2023-03-01T13:15:44;50.60;;;21.67;;
22677;SDS011;26259;50.214;18.620;2023-03-01T13:20:48;40.93;;;21.27;;
22677;SDS011;26259;50.214;18.620;2023-03-01T13:31:09;33.00;;;19.40;;
22677;SDS011;26259;50.214;18.620;2023-03-01T13:33:56;36.10;;;18.63;;
22677;SDS011;26259;50.214;18.620;2023-03-01T13:39:27;37.87;;;19.30;;
22677;SDS011;26259;50.214;18.620;2023-03-01T13:41:59;36.30;;;19.17;;
22677;SDS011;26259;50.214;18.620;2023-03-01T13:44:26;29.97;;;18.20;;
22677;SDS011;26259;50.214;18.620;2023-03-01T13:49:41;35.93;;;19.43;;
22677;SDS011;26259;50.214;18.620;2023-03-01T13:57:42;35.67;;;18.60;;
22677;SDS011;26259;50.214;18.620;2023-03-01T14:00:31;32.87;;;19.03;;
22677;SDS011;26259;50.214;18.620;2023-03-01T14:03:06;33.20;;;18.77;;
22677;SDS011;26259;50.214;18.620;2023-03-01T14:06:04;34.10;;;19.50;;
22677;SDS011;26259;50.214;18.620;2023-03-01T14:08:33;33.23;;;18.60;;
22677;SDS011;26259;50.214;18.620;2023-03-01T14:13:29;32.77;;;19.07;;
22677;SDS011;26259;50.214;18.620;2023-03-01T14:21:19;27.80;;;17.07;;
22677;SDS011;26259;50.214;18.620;2023-03-01T14:23:45;29.17;;;17.47;;
22677;SDS011;26259;50.214;18.620;2023-03-01T14:26:11;31.27;;;18.37;;
22677;SDS011;26259;50.214;18.620;2023-03-01T14:28:37;32.77;;;18.83;;
22677;SDS011;26259;50.214;18.620;2023-03-01T14:31:34;36.27;;;20.10;;
22677;SDS011;26259;50.214;18.620;2023-03-01T14:34:05;34.27;;;19.17;;
22677;SDS011;26259;50.214;18.620;2023-03-01T14:36:31;30.37;;;16.93;;
22677;SDS011;26259;50.214;18.620;2023-03-01T14:38:58;27.63;;;17.17;;
22677;SDS011;26259;50.214;18.620;2023-03-01T14:41:30;26.73;;;16.53;;
22677;SDS011;26259;50.214;18.620;2023-03-01T14:44:02;30.20;;;17.97;;
22677;SDS011;26259;50.214;18.620;2023-03-01T14:49:05;29.57;;;17.13;;
22677;SDS011;26259;50.214;18.620;2023-03-01T14:51:51;31.83;;;17.40;;
22677;SDS011;26259;50.214;18.620;2023-03-01T14:54:20;26.10;;;17.53;;
22677;SDS011;26259;50.214;18.620;2023-03-01T14:56:50;30.47;;;17.87;;
22677;SDS011;26259;50.214;18.620;2023-03-01T14:59:19;29.57;;;18.27;;
22677;SDS011;26259;50.214;18.620;2023-03-01T15:01:48;28.80;;;17.27;;
22677;SDS011;26259;50.214;18.620;2023-03-01T15:04:16;33.03;;;17.83;;
22677;SDS011;26259;50.214;18.620;2023-03-01T15:06:43;27.13;;;17.20;;
22677;SDS011;26259;50.214;18.620;2023-03-01T15:09:14;28.93;;;17.33;;
22677;SDS011;26259;50.214;18.620;2023-03-01T15:11:41;27.00;;;15.83;;
22677;SDS011;26259;50.214;18.620;2023-03-01T15:14:27;28.53;;;17.20;;
22677;SDS011;26259;50.214;18.620;2023-03-01T15:17:03;38.53;;;20.60;;
22677;SDS011;26259;50.214;18.620;2023-03-01T15:19:29;25.90;;;17.00;;
22677;SDS011;26259;50.214;18.620;2023-03-01T15:21:55;28.80;;;15.83;;
22677;SDS011;26259;50.214;18.620;2023-03-01T15:24:23;25.50;;;16.13;;
22677;SDS011;26259;50.214;18.620;2023-03-01T15:26:55;30.07;;;16.47;;
22677;SDS011;26259;50.214;18.620;2023-03-01T15:29:27;23.80;;;14.77;;
22677;SDS011;26259;50.214;18.620;2023-03-01T15:31:56;24.43;;;16.53;;
22677;SDS011;26259;50.214;18.620;2023-03-01T15:34:31;26.87;;;15.60;;
22677;SDS011;26259;50.214;18.620;2023-03-01T15:37:04;27.57;;;15.40;;
22677;SDS011;26259;50.214;18.620;2023-03-01T15:39:41;24.47;;;15.27;;
22677;SDS011;26259;50.214;18.620;2023-03-01T15:45:11;27.53;;;15.43;;
22677;SDS011;26259;50.214;18.620;2023-03-01T15:47:53;27.93;;;16.87;;
22677;SDS011;26259;50.214;18.620;2023-03-01T15:52:57;36.63;;;21.30;;
22677;SDS011;26259;50.214;18.620;2023-03-01T15:55:25;40.47;;;22.20;;
22677;SDS011;26259;50.214;18.620;2023-03-01T15:58:00;35.53;;;21.30;;
22677;SDS011;26259;50.214;18.620;2023-03-01T16:00:31;30.33;;;17.33;;
22677;SDS011;26259;50.214;18.620;2023-03-01T16:02:57;28.57;;;16.60;;
22677;SDS011;26259;50.214;18.620;2023-03-01T16:07:49;25.27;;;15.77;;
22677;SDS011;26259;50.214;18.620;2023-03-01T16:10:15;24.87;;;15.33;;
22677;SDS011;26259;50.214;18.620;2023-03-01T16:12:41;26.43;;;16.00;;
22677;SDS011;26259;50.214;18.620;2023-03-01T16:15:10;25.13;;;15.20;;
22677;SDS011;26259;50.214;18.620;2023-03-01T16:17:43;26.20;;;15.07;;
22677;SDS011;26259;50.214;18.620;2023-03-01T16:20:08;26.87;;;15.37;;
22677;SDS011;26259;50.214;18.620;2023-03-01T16:22:35;32.43;;;17.03;;
22677;SDS011;26259;50.214;18.620;2023-03-01T16:25:00;26.77;;;16.10;;
22677;SDS011;26259;50.214;18.620;2023-03-01T16:27:27;26.43;;;15.83;;
22677;SDS011;26259;50.214;18.620;2023-03-01T16:29:53;33.43;;;18.27;;
22677;SDS011;26259;50.214;18.620;2023-03-01T16:32:18;30.63;;;18.03;;
22677;SDS011;26259;50.214;18.620;2023-03-01T16:34:44;29.73;;;16.00;;
22677;SDS011;26259;50.214;18.620;2023-03-01T16:37:12;35.67;;;19.50;;
22677;SDS011;26259;50.214;18.620;2023-03-01T16:39:38;40.60;;;23.23;;
22677;SDS011;26259;50.214;18.620;2023-03-01T16:42:04;36.37;;;20.33;;
22677;SDS011;26259;50.214;18.620;2023-03-01T16:44:29;53.67;;;28.80;;
22677;SDS011;26259;50.214;18.620;2023-03-01T16:46:55;54.93;;;31.07;;
22677;SDS011;26259;50.214;18.620;2023-03-01T16:49:21;55.10;;;29.47;;
22677;SDS011;26259;50.214;18.620;2023-03-01T16:51:46;57.87;;;30.40;;
22677;SDS011;26259;50.214;18.620;2023-03-01T16:54:12;56.57;;;29.10;;
22677;SDS011;26259;50.214;18.620;2023-03-01T16:56:37;67.30;;;35.27;;
22677;SDS011;26259;50.214;18.620;2023-03-01T16:59:04;85.73;;;40.20;;
22677;SDS011;26259;50.214;18.620;2023-03-01T17:01:30;116.90;;;58.00;;
22677;SDS011;26259;50.214;18.620;2023-03-01T17:04:04;129.97;;;62.13;;
22677;SDS011;26259;50.214;18.620;2023-03-01T17:06:30;78.67;;;40.97;;
22677;SDS011;26259;50.214;18.620;2023-03-01T17:08:57;61.97;;;33.40;;
22677;SDS011;26259;50.214;18.620;2023-03-01T17:11:24;59.23;;;31.27;;
22677;SDS011;26259;50.214;18.620;2023-03-01T17:13:51;67.90;;;35.80;;
22677;SDS011;26259;50.214;18.620;2023-03-01T17:16:17;59.43;;;30.13;;
22677;SDS011;26259;50.214;18.620;2023-03-01T17:18:44;58.43;;;31.13;;
22677;SDS011;26259;50.214;18.620;2023-03-01T17:21:12;57.17;;;30.73;;
22677;SDS011;26259;50.214;18.620;2023-03-01T17:23:39;58.47;;;31.73;;
22677;SDS011;26259;50.214;18.620;2023-03-01T17:26:06;68.60;;;34.70;;
22677;SDS011;26259;50.214;18.620;2023-03-01T17:28:33;66.63;;;35.50;;
22677;SDS011;26259;50.214;18.620;2023-03-01T17:30:59;69.03;;;36.90;;
22677;SDS011;26259;50.214;18.620;2023-03-01T17:33:26;72.57;;;36.13;;
22677;SDS011;26259;50.214;18.620;2023-03-01T17:35:52;72.87;;;36.73;;
22677;SDS011;26259;50.214;18.620;2023-03-01T17:38:17;85.20;;;39.03;;
22677;SDS011;26259;50.214;18.620;2023-03-01T17:40:43;85.87;;;42.37;;